Time;durP1;ratioP1;P1;durP2;ratioP2;P2;SDS_P1;SDS_P2;PMS_P1;PMS_P2;Temp;Humidity;BMP_temperature;BMP_pressure;BME280_temperature;BME280_humidity;BME280_pressure;Samples;Min_cycle;Max_cycle;Signal;HPM_P1;HPM_P2
2023/10/31 00:01:02;;;;;;;5.07;4.20;;;12.70;99.90;;;;;;5047016;28;20836;-63
2023/10/31 00:03:28;;;;;;;6.87;4.73;;;12.60;99.90;;;;;;5053138;28;20185;-63
2023/10/31 00:05:53;;;;;;;5.50;4.60;;;12.60;99.90;;;;;;5057325;28;20633;-63
2023/10/31 00:08:19;;;;;;;8.60;4.90;;;12.60;99.90;;;;;;5052381;28;20170;-64
2023/10/31 00:10:46;;;;;;;5.73;4.77;;;12.70;99.90;;;;;;5061689;28;20207;-63
2023/10/31 00:13:12;;;;;;;9.20;5.40;;;12.60;99.90;;;;;;5064553;28;20276;-63
2023/10/31 00:15:37;;;;;;;7.17;5.93;;;12.60;99.90;;;;;;5057018;28;20520;-63
2023/10/31 00:18:03;;;;;;;7.83;5.00;;;12.70;99.90;;;;;;5049374;28;20426;-63
2023/10/31 00:20:29;;;;;;;10.00;5.93;;;12.60;99.90;;;;;;5052581;28;20224;-64
2023/10/31 00:22:55;;;;;;;6.53;3.80;;;12.60;99.90;;;;;;5054691;28;20185;-63
2023/10/31 00:25:20;;;;;;;5.80;4.57;;;12.60;99.90;;;;;;5046388;28;20460;-64
2023/10/31 00:27:46;;;;;;;9.40;5.30;;;12.60;99.90;;;;;;5062773;28;20208;-66
2023/10/31 00:30:12;;;;;;;10.70;5.20;;;12.50;99.90;;;;;;5052988;28;20202;-63
2023/10/31 00:32:37;;;;;;;6.53;4.93;;;12.50;99.90;;;;;;5029258;28;20170;-64
2023/10/31 00:35:03;;;;;;;4.70;4.17;;;12.60;99.90;;;;;;5049627;28;20170;-66
2023/10/31 00:37:29;;;;;;;6.20;4.60;;;12.50;99.90;;;;;;5052042;28;20172;-64
2023/10/31 00:39:55;;;;;;;5.50;4.60;;;12.50;99.90;;;;;;5052473;28;20179;-65
2023/10/31 00:42:20;;;;;;;7.63;4.63;;;12.50;99.90;;;;;;5006291;28;20656;-65
2023/10/31 00:44:46;;;;;;;6.67;5.37;;;12.50;99.90;;;;;;5062804;28;20424;-64
2023/10/31 00:47:12;;;;;;;5.97;5.37;;;12.50;99.90;;;;;;5071019;28;20194;-64
2023/10/31 00:49:37;;;;;;;6.70;4.80;;;12.50;99.90;;;;;;5071265;28;20215;-64
2023/10/31 00:52:03;;;;;;;7.43;5.23;;;12.50;99.90;;;;;;5071091;28;20246;-63
2023/10/31 00:54:29;;;;;;;6.30;4.50;;;12.50;99.90;;;;;;5071028;28;20174;-63
2023/10/31 00:56:54;;;;;;;7.43;4.80;;;12.50;99.90;;;;;;5063932;28;20916;-63
2023/10/31 00:59:20;;;;;;;6.00;5.17;;;12.50;99.90;;;;;;5051109;28;20178;-64
2023/10/31 01:01:45;;;;;;;8.43;5.17;;;12.50;99.90;;;;;;5048738;28;20277;-65
2023/10/31 01:04:11;;;;;;;8.80;5.97;;;12.50;99.90;;;;;;5062670;28;20178;-61
2023/10/31 01:06:43;;;;;;;5.47;4.67;;;12.50;99.90;;;;;;5054019;28;20226;-64
2023/10/31 01:09:11;;;;;;;6.50;5.57;;;12.50;99.90;;;;;;5071208;28;20408;-64
2023/10/31 01:11:36;;;;;;;14.23;4.70;;;12.40;99.90;;;;;;5063827;28;20461;-63
2023/10/31 01:14:03;;;;;;;6.10;4.90;;;12.40;99.90;;;;;;5033987;28;20418;-64
2023/10/31 01:16:29;;;;;;;6.40;4.53;;;12.40;99.90;;;;;;5066126;28;20222;-64
2023/10/31 01:18:54;;;;;;;5.87;4.83;;;12.40;99.90;;;;;;5066947;28;20468;-63
2023/10/31 01:21:20;;;;;;;5.53;4.73;;;12.40;99.90;;;;;;5071128;28;20629;-61
2023/10/31 01:23:46;;;;;;;10.87;5.10;;;12.40;99.90;;;;;;5071066;28;20182;-61
2023/10/31 01:26:11;;;;;;;8.20;4.67;;;12.40;99.90;;;;;;5070715;28;20680;-63
2023/10/31 01:28:37;;;;;;;8.40;5.10;;;12.40;99.90;;;;;;5070879;28;20174;-63
2023/10/31 01:31:02;;;;;;;6.00;5.03;;;12.40;99.90;;;;;;5070478;28;20661;-63
2023/10/31 01:33:28;;;;;;;7.30;4.53;;;12.40;99.90;;;;;;5059319;28;20179;-61
2023/10/31 01:35:54;;;;;;;5.33;4.53;;;12.30;99.90;;;;;;5048379;28;20187;-61
2023/10/31 01:38:19;;;;;;;10.60;5.90;;;12.30;99.90;;;;;;5050607;28;20205;-61
2023/10/31 01:40:49;;;;;;;5.57;5.07;;;12.30;99.90;;;;;;5050343;28;20282;-63
2023/10/31 01:43:33;;;;;;;7.07;5.73;;;12.20;99.90;;;;;;5046600;28;20172;-63
2023/10/31 01:45:58;;;;;;;6.53;5.10;;;12.30;99.90;;;;;;5044621;28;20560;-63
2023/10/31 01:48:26;;;;;;;6.53;5.90;;;12.30;99.90;;;;;;5063785;28;20428;-62
2023/10/31 01:50:51;;;;;;;8.70;5.60;;;12.20;99.90;;;;;;5063239;28;20202;-62
2023/10/31 01:53:18;;;;;;;7.40;6.67;;;12.20;99.90;;;;;;5070849;28;20466;-65
2023/10/31 01:55:45;;;;;;;7.27;5.20;;;12.20;99.90;;;;;;5070093;28;20202;-61
2023/10/31 01:58:12;;;;;;;6.47;5.40;;;12.20;99.90;;;;;;5070133;28;20405;-64
2023/10/31 02:00:40;;;;;;;6.13;5.07;;;12.20;99.90;;;;;;5070019;28;20757;-63
2023/10/31 02:03:07;;;;;;;7.10;5.97;;;12.20;99.90;;;;;;5068487;28;20499;-62
2023/10/31 02:05:34;;;;;;;8.10;5.87;;;12.20;99.90;;;;;;5048270;28;20456;-62
2023/10/31 02:08:00;;;;;;;9.00;6.90;;;12.10;99.90;;;;;;5049980;28;20478;-63
2023/10/31 02:10:26;;;;;;;7.60;5.37;;;12.10;99.90;;;;;;5048427;28;20449;-63
2023/10/31 02:12:51;;;;;;;10.63;6.40;;;12.10;99.90;;;;;;5051196;28;20555;-63
2023/10/31 02:15:17;;;;;;;7.80;6.10;;;12.10;99.90;;;;;;5051345;28;20248;-63
2023/10/31 02:17:43;;;;;;;12.73;6.33;;;12.10;99.90;;;;;;5053592;28;20179;-61
2023/10/31 02:20:09;;;;;;;12.60;6.80;;;12.10;99.90;;;;;;5055093;28;20181;-62
2023/10/31 02:22:34;;;;;;;8.53;6.00;;;12.20;99.90;;;;;;5073294;28;20193;-61
2023/10/31 02:25:00;;;;;;;7.27;6.53;;;12.00;99.90;;;;;;5073100;28;20408;-61
2023/10/31 02:27:25;;;;;;;8.07;6.47;;;12.00;99.90;;;;;;5073324;28;20659;-63
2023/10/31 02:29:51;;;;;;;8.37;6.33;;;12.00;99.90;;;;;;5060082;28;20171;-61
2023/10/31 02:32:16;;;;;;;7.40;6.20;;;12.00;99.90;;;;;;5051080;28;20735;-64
2023/10/31 02:34:44;;;;;;;7.30;5.40;;;12.00;99.90;;;;;;5053195;28;20197;-63
2023/10/31 02:37:10;;;;;;;7.50;6.70;;;11.90;99.90;;;;;;5049431;28;20500;-62
2023/10/31 02:39:37;;;;;;;8.57;6.53;;;11.90;99.90;;;;;;5051847;28;20433;-61
2023/10/31 02:42:02;;;;;;;8.30;6.80;;;11.80;99.90;;;;;;5073092;28;20416;-62
2023/10/31 02:44:28;;;;;;;7.97;6.07;;;11.90;99.90;;;;;;5073129;28;20968;-64
2023/10/31 02:46:54;;;;;;;9.57;7.07;;;11.80;99.90;;;;;;5072687;28;20222;-62
2023/10/31 02:49:19;;;;;;;9.70;6.80;;;11.80;99.90;;;;;;5073386;28;20289;-62
2023/10/31 02:51:45;;;;;;;7.70;6.10;;;11.80;99.90;;;;;;5072847;28;20255;-62
2023/10/31 02:54:11;;;;;;;7.60;6.03;;;11.80;99.90;;;;;;5064935;28;20653;-63
2023/10/31 02:56:37;;;;;;;7.57;6.77;;;11.80;99.90;;;;;;5052679;28;20532;-63
2023/10/31 02:59:02;;;;;;;14.63;7.13;;;11.80;99.90;;;;;;5052533;28;20178;-65
2023/10/31 03:01:29;;;;;;;8.27;6.73;;;11.70;99.90;;;;;;5051620;28;20785;-62
2023/10/31 03:03:55;;;;;;;10.13;7.10;;;11.70;99.90;;;;;;5048557;28;20175;-65
2023/10/31 03:06:21;;;;;;;13.33;7.57;;;11.70;99.90;;;;;;5045913;28;20459;-63
2023/10/31 03:08:46;;;;;;;10.93;7.90;;;11.80;99.90;;;;;;5072724;28;20416;-63
2023/10/31 03:11:32;;;;;;;8.03;6.80;;;11.80;99.90;;;;;;5055077;28;20481;-62
2023/10/31 03:13:58;;;;;;;9.33;7.07;;;11.80;99.90;;;;;;5050046;28;20179;-60
2023/10/31 03:16:24;;;;;;;8.03;7.23;;;11.80;99.90;;;;;;5064849;28;20435;-62
2023/10/31 03:18:50;;;;;;;11.30;7.20;;;11.80;99.90;;;;;;5048939;28;20179;-62
2023/10/31 03:21:16;;;;;;;8.90;7.07;;;11.80;99.90;;;;;;5051195;28;20783;-63
2023/10/31 03:23:43;;;;;;;10.30;7.27;;;11.80;99.90;;;;;;5062962;28;20179;-60
2023/10/31 03:26:08;;;;;;;10.03;7.30;;;11.70;99.90;;;;;;5051748;28;20199;-60
2023/10/31 03:28:34;;;;;;;10.70;7.53;;;11.80;99.90;;;;;;5042799;28;21004;-61
2023/10/31 03:30:59;;;;;;;7.70;6.80;;;11.80;99.90;;;;;;5050353;28;20202;-62
2023/10/31 03:33:25;;;;;;;12.03;8.23;;;11.80;99.90;;;;;;5051799;28;20175;-62
2023/10/31 03:35:51;;;;;;;10.27;7.50;;;11.80;99.90;;;;;;5051675;28;20206;-59
2023/10/31 03:38:16;;;;;;;9.43;7.73;;;11.80;99.90;;;;;;5047349;28;20611;-63
2023/10/31 03:40:42;;;;;;;8.27;7.47;;;11.80;99.90;;;;;;5056493;28;20206;-63
2023/10/31 03:43:07;;;;;;;10.77;8.10;;;11.80;99.90;;;;;;5071671;28;20206;-63
2023/10/31 03:45:33;;;;;;;14.43;8.73;;;11.80;99.90;;;;;;5056769;28;20206;-63
2023/10/31 03:47:59;;;;;;;13.33;6.67;;;11.80;99.90;;;;;;5051732;28;20631;-61
2023/10/31 03:50:24;;;;;;;8.80;8.00;;;11.80;99.90;;;;;;5051679;28;20197;-62
2023/10/31 03:52:50;;;;;;;11.67;7.57;;;11.90;99.90;;;;;;5051232;28;20178;-63
2023/10/31 03:55:15;;;;;;;10.07;6.97;;;11.90;99.90;;;;;;5047150;28;20182;-63
2023/10/31 03:57:41;;;;;;;8.30;7.07;;;11.80;99.90;;;;;;5048700;28;20175;-63
2023/10/31 04:00:07;;;;;;;8.50;7.43;;;11.80;99.90;;;;;;5057235;28;20253;-63
2023/10/31 04:02:33;;;;;;;8.80;7.20;;;11.80;99.90;;;;;;5057282;28;20273;-63
2023/10/31 04:04:59;;;;;;;10.10;7.37;;;11.80;99.90;;;;;;5049672;28;20427;-63
2023/10/31 04:07:24;;;;;;;10.53;8.27;;;11.80;99.90;;;;;;5055725;28;20417;-63
2023/10/31 04:09:50;;;;;;;8.73;7.40;;;11.80;99.90;;;;;;5050687;28;20261;-64
2023/10/31 04:12:16;;;;;;;10.90;9.60;;;11.80;99.90;;;;;;5050704;28;20309;-64
2023/10/31 04:14:42;;;;;;;8.83;7.43;;;11.80;99.90;;;;;;5048929;28;20171;-64
2023/10/31 04:17:07;;;;;;;11.27;7.20;;;11.90;99.90;;;;;;5050254;28;20449;-63
2023/10/31 04:19:33;;;;;;;11.30;7.60;;;11.90;99.90;;;;;;5050893;28;20171;-62
2023/10/31 04:21:59;;;;;;;10.33;8.00;;;11.90;99.90;;;;;;5043794;28;20188;-64
2023/10/31 04:24:24;;;;;;;8.97;8.07;;;11.80;99.90;;;;;;5052960;28;20179;-63
2023/10/31 04:26:50;;;;;;;11.80;7.67;;;11.70;99.90;;;;;;5046532;28;20187;-65
2023/10/31 04:29:15;;;;;;;12.03;7.83;;;11.70;99.90;;;;;;5048314;28;20186;-63
2023/10/31 04:31:41;;;;;;;10.83;6.90;;;11.70;99.90;;;;;;5048766;28;20195;-63
2023/10/31 04:34:07;;;;;;;12.90;8.70;;;11.70;99.90;;;;;;5050420;28;20228;-63
2023/10/31 04:36:33;;;;;;;9.30;8.30;;;11.60;99.90;;;;;;5049887;28;20352;-64
2023/10/31 04:38:58;;;;;;;9.87;8.27;;;11.70;99.90;;;;;;5050437;28;20504;-64
2023/10/31 04:41:24;;;;;;;9.43;8.40;;;11.80;99.90;;;;;;5044237;28;20285;-62
2023/10/31 04:43:49;;;;;;;9.60;8.60;;;11.70;99.90;;;;;;5051007;28;20201;-61
2023/10/31 04:46:16;;;;;;;11.60;9.20;;;11.70;99.90;;;;;;5049811;28;20330;-63
2023/10/31 04:48:42;;;;;;;11.20;9.53;;;11.70;99.90;;;;;;5050142;28;20172;-63
2023/10/31 04:51:07;;;;;;;11.60;8.50;;;11.70;99.90;;;;;;5050566;28;20460;-63
2023/10/31 04:53:34;;;;;;;14.33;9.90;;;11.80;99.90;;;;;;5050372;28;20253;-63
2023/10/31 04:55:59;;;;;;;13.67;8.83;;;11.80;99.90;;;;;;5043116;28;20195;-63
2023/10/31 04:58:25;;;;;;;12.40;9.97;;;11.80;99.90;;;;;;5069770;28;20428;-63
2023/10/31 05:00:51;;;;;;;12.13;9.60;;;11.80;99.90;;;;;;5050265;28;20182;-64
2023/10/31 05:03:17;;;;;;;11.23;9.77;;;11.80;99.90;;;;;;5046349;28;20265;-63
2023/10/31 05:05:44;;;;;;;13.30;10.70;;;11.90;99.90;;;;;;5046467;28;20653;-62
2023/10/31 05:08:09;;;;;;;13.10;10.23;;;11.90;99.90;;;;;;5050114;28;20418;-62
2023/10/31 05:10:35;;;;;;;11.27;10.00;;;11.90;99.90;;;;;;5051096;28;20815;-63
2023/10/31 05:13:02;;;;;;;13.57;11.83;;;11.90;99.90;;;;;;5058226;28;20185;-63
2023/10/31 05:15:28;;;;;;;13.87;11.03;;;11.90;99.90;;;;;;5050379;28;20381;-63
2023/10/31 05:17:54;;;;;;;12.17;8.80;;;11.90;99.90;;;;;;5049493;28;20916;-63
2023/10/31 05:20:20;;;;;;;10.27;8.60;;;11.90;99.90;;;;;;5043353;28;20564;-62
2023/10/31 05:22:46;;;;;;;9.67;8.67;;;12.00;99.90;;;;;;5058741;28;20252;-62
2023/10/31 05:25:11;;;;;;;14.90;9.50;;;12.00;99.90;;;;;;5048882;28;20426;-63
2023/10/31 05:27:37;;;;;;;10.87;8.77;;;12.00;99.90;;;;;;5052814;28;20170;-62
2023/10/31 05:30:03;;;;;;;12.73;9.40;;;12.00;99.90;;;;;;5042269;28;20561;-62
2023/10/31 05:32:29;;;;;;;9.87;7.80;;;11.90;99.90;;;;;;5062961;28;20178;-62
2023/10/31 05:34:54;;;;;;;9.20;8.00;;;12.00;99.90;;;;;;5064173;28;20423;-62
2023/10/31 05:37:20;;;;;;;12.07;10.20;;;12.10;99.90;;;;;;5057104;28;20202;-62
2023/10/31 05:39:46;;;;;;;11.33;7.93;;;12.10;99.90;;;;;;5058534;28;20175;-63
2023/10/31 05:42:11;;;;;;;10.10;7.40;;;12.10;99.90;;;;;;5050301;28;20182;-62
2023/10/31 05:44:37;;;;;;;8.90;8.00;;;12.10;99.90;;;;;;5049607;28;20254;-61
2023/10/31 05:47:03;;;;;;;12.20;8.80;;;12.10;99.90;;;;;;5050999;28;20198;-62
2023/10/31 05:49:30;;;;;;;7.73;6.93;;;12.10;99.90;;;;;;5050970;28;20273;-61
2023/10/31 05:51:55;;;;;;;8.80;7.90;;;12.10;99.90;;;;;;5051349;28;20933;-62
2023/10/31 05:54:21;;;;;;;7.83;6.43;;;12.10;99.90;;;;;;5053811;28;20527;-62
2023/10/31 05:56:47;;;;;;;8.10;7.30;;;12.10;99.90;;;;;;5046565;28;20198;-62
2023/10/31 05:59:13;;;;;;;7.67;6.87;;;12.10;99.90;;;;;;5065227;28;20228;-62
2023/10/31 06:01:39;;;;;;;6.87;6.17;;;12.10;99.90;;;;;;5053175;28;20975;-62
2023/10/31 06:04:05;;;;;;;7.17;6.50;;;12.10;99.90;;;;;;5052677;28;20175;-62
2023/10/31 06:06:38;;;;;;;6.90;6.20;;;12.10;99.90;;;;;;5053906;28;20634;-62
2023/10/31 06:09:04;;;;;;;9.97;6.70;;;12.10;99.90;;;;;;5052094;28;20537;-62
2023/10/31 06:11:30;;;;;;;8.63;6.53;;;12.10;99.90;;;;;;5052979;28;20455;-62
2023/10/31 06:13:55;;;;;;;8.63;7.03;;;12.20;99.90;;;;;;5054237;28;20433;-62
2023/10/31 06:16:21;;;;;;;7.17;6.47;;;12.20;99.90;;;;;;5052407;28;20217;-62
2023/10/31 06:18:46;;;;;;;7.23;6.57;;;12.20;99.90;;;;;;5052923;28;20255;-62
2023/10/31 06:21:12;;;;;;;7.07;6.00;;;12.20;99.90;;;;;;5046839;28;20651;-62
2023/10/31 06:23:38;;;;;;;8.97;6.40;;;12.20;99.90;;;;;;5054741;28;20266;-62
2023/10/31 06:26:05;;;;;;;8.87;8.00;;;12.20;99.90;;;;;;5052140;28;20201;-62
2023/10/31 06:28:34;;;;;;;9.17;7.57;;;12.20;99.90;;;;;;5053349;28;20862;-62
2023/10/31 06:31:00;;;;;;;9.73;8.37;;;12.20;99.90;;;;;;5051360;28;20518;-65
2023/10/31 06:33:25;;;;;;;11.80;9.20;;;12.20;99.90;;;;;;5065735;28;20811;-63
2023/10/31 06:35:53;;;;;;;16.43;9.10;;;12.30;99.90;;;;;;5058146;28;20191;-63
2023/10/31 06:38:19;;;;;;;9.87;8.73;;;12.30;99.90;;;;;;5059174;28;20175;-64
2023/10/31 06:40:45;;;;;;;10.73;7.70;;;12.30;99.90;;;;;;5048850;28;20532;-65
2023/10/31 06:43:11;;;;;;;9.37;7.77;;;12.30;99.90;;;;;;5049053;28;20440;-61
2023/10/31 06:45:36;;;;;;;11.90;8.50;;;12.30;99.90;;;;;;5054430;28;20198;-62
2023/10/31 06:48:02;;;;;;;11.07;8.10;;;12.40;99.90;;;;;;5057555;28;20662;-63
2023/10/31 06:50:28;;;;;;;8.00;7.17;;;12.50;99.90;;;;;;5052851;28;20204;-62
2023/10/31 06:52:54;;;;;;;9.20;7.37;;;12.50;99.90;;;;;;5053042;28;20515;-63
2023/10/31 06:55:20;;;;;;;8.20;7.40;;;12.50;99.90;;;;;;5061107;28;20197;-63
2023/10/31 06:57:45;;;;;;;6.77;6.17;;;12.50;99.90;;;;;;5049109;28;20638;-64
2023/10/31 07:00:12;;;;;;;7.47;6.17;;;12.50;99.90;;;;;;5051811;28;20711;-64
2023/10/31 07:02:38;;;;;;;7.93;6.43;;;12.50;99.90;;;;;;5047346;28;20167;-64
2023/10/31 07:05:04;;;;;;;7.27;6.57;;;12.60;99.90;;;;;;5052090;28;20842;-64
2023/10/31 07:07:30;;;;;;;8.83;7.07;;;12.60;99.90;;;;;;5053447;28;20606;-63
2023/10/31 07:09:55;;;;;;;5.97;5.37;;;12.70;99.90;;;;;;5053982;28;20425;-63
2023/10/31 07:12:21;;;;;;;7.47;5.80;;;12.70;99.90;;;;;;5035375;28;20533;-64
2023/10/31 07:14:47;;;;;;;5.93;5.40;;;12.70;99.90;;;;;;5065352;28;20166;-65
2023/10/31 07:17:13;;;;;;;6.13;5.53;;;12.70;99.90;;;;;;5052076;28;20448;-64
2023/10/31 07:19:38;;;;;;;6.40;5.80;;;12.70;99.90;;;;;;5053464;28;20401;-64
2023/10/31 07:22:04;;;;;;;4.30;3.90;;;12.70;99.90;;;;;;5056822;28;20174;-64
2023/10/31 07:24:30;;;;;;;6.70;4.70;;;12.70;99.90;;;;;;5052573;28;20171;-64
2023/10/31 07:26:55;;;;;;;3.70;3.40;;;12.70;99.90;;;;;;5026421;28;20505;-64
2023/10/31 07:29:21;;;;;;;3.70;3.40;;;12.60;99.90;;;;;;5046281;28;20644;-63
2023/10/31 07:31:47;;;;;;;3.97;3.27;;;12.60;99.90;;;;;;5052004;28;20255;-64
2023/10/31 07:34:12;;;;;;;3.73;3.07;;;12.70;99.90;;;;;;5052381;28;20434;-63
2023/10/31 07:36:39;;;;;;;5.27;2.90;;;12.50;99.90;;;;;;5047168;28;20187;-65
2023/10/31 07:39:05;;;;;;;3.00;2.80;;;12.60;99.90;;;;;;5048364;28;20171;-62
2023/10/31 07:41:30;;;;;;;3.53;3.10;;;12.60;99.90;;;;;;5044253;28;20505;-63
2023/10/31 07:43:56;;;;;;;2.63;2.43;;;12.50;99.90;;;;;;5050070;28;20436;-64
2023/10/31 07:46:23;;;;;;;3.20;2.87;;;12.50;99.90;;;;;;5047797;28;20202;-64
2023/10/31 07:48:49;;;;;;;2.80;2.60;;;12.50;99.90;;;;;;5051609;28;20198;-65
2023/10/31 07:51:14;;;;;;;2.63;2.43;;;12.50;99.90;;;;;;5047422;28;20978;-63
2023/10/31 07:53:41;;;;;;;3.03;2.60;;;12.50;99.90;;;;;;5051323;28;20410;-64
2023/10/31 07:56:17;;;;;;;3.03;2.83;;;12.60;99.90;;;;;;5046417;28;20187;-66
2023/10/31 07:58:43;;;;;;;3.17;2.43;;;12.50;99.90;;;;;;5051433;28;20409;-64
2023/10/31 08:01:10;;;;;;;1.70;1.60;;;12.40;99.90;;;;;;5051150;28;20798;-62
2023/10/31 08:03:37;;;;;;;2.40;2.20;;;12.40;99.90;;;;;;5045972;28;20171;-62
2023/10/31 08:06:04;;;;;;;3.53;2.70;;;12.40;99.90;;;;;;5053570;28;20448;-63
2023/10/31 08:08:30;;;;;;;2.37;2.03;;;12.40;99.90;;;;;;5043595;28;20420;-63
2023/10/31 08:10:57;;;;;;;3.17;1.90;;;12.50;99.90;;;;;;5046020;28;20956;-63
2023/10/31 08:13:22;;;;;;;6.17;2.33;;;12.40;99.90;;;;;;5043367;28;20194;-64
2023/10/31 08:15:48;;;;;;;2.60;1.73;;;12.40;99.90;;;;;;5050980;28;20920;-63
2023/10/31 08:18:13;;;;;;;1.70;1.57;;;12.30;99.90;;;;;;5053594;28;20195;-63
2023/10/31 08:20:39;;;;;;;1.70;1.60;;;12.40;99.90;;;;;;5045200;28;20237;-64
2023/10/31 08:23:05;;;;;;;1.53;1.37;;;12.40;99.90;;;;;;5046746;28;20640;-65
2023/10/31 08:25:30;;;;;;;1.53;1.40;;;12.50;99.90;;;;;;5051957;28;20243;-64
2023/10/31 08:27:56;;;;;;;1.87;1.23;;;12.40;99.90;;;;;;5052170;28;20171;-64
2023/10/31 08:30:22;;;;;;;1.37;1.23;;;12.30;99.90;;;;;;5051265;28;20731;-64
2023/10/31 08:32:48;;;;;;;1.20;1.10;;;12.40;99.90;;;;;;5040451;28;20456;-66
2023/10/31 08:35:13;;;;;;;5.57;1.40;;;12.30;99.90;;;;;;5069090;28;20174;-63
2023/10/31 08:37:39;;;;;;;1.27;1.17;;;12.40;99.90;;;;;;5052340;28;20178;-65
2023/10/31 08:40:05;;;;;;;2.57;1.90;;;12.40;99.90;;;;;;5051881;28;20178;-65
2023/10/31 08:42:31;;;;;;;1.30;1.20;;;12.50;99.90;;;;;;5047216;28;20211;-64
2023/10/31 08:44:56;;;;;;;1.27;1.17;;;12.50;99.90;;;;;;5047951;28;20457;-64
2023/10/31 08:47:23;;;;;;;0.90;0.90;;;12.70;99.90;;;;;;5051484;28;20202;-64
2023/10/31 08:49:48;;;;;;;1.30;1.20;;;12.80;99.90;;;;;;5070717;28;20183;-64
2023/10/31 08:52:14;;;;;;;3.00;1.50;;;12.80;99.90;;;;;;5071688;28;20464;-64
2023/10/31 08:54:39;;;;;;;0.80;0.80;;;12.80;99.90;;;;;;5071569;28;20194;-65
2023/10/31 08:57:05;;;;;;;1.90;1.27;;;12.80;99.90;;;;;;5046648;28;20566;-65
2023/10/31 08:59:31;;;;;;;2.10;1.03;;;12.70;99.90;;;;;;5051577;28;20173;-64
2023/10/31 09:01:56;;;;;;;0.90;0.90;;;12.90;99.90;;;;;;5051669;28;20168;-64
2023/10/31 09:04:22;;;;;;;1.87;1.40;;;12.80;99.90;;;;;;5051222;28;20183;-63
2023/10/31 09:06:48;;;;;;;1.70;1.10;;;12.70;99.90;;;;;;5047702;28;20221;-64
2023/10/31 09:09:13;;;;;;;1.40;1.20;;;12.60;99.90;;;;;;5051644;28;20203;-65
2023/10/31 09:11:39;;;;;;;1.43;0.90;;;12.80;99.90;;;;;;5051245;28;20198;-65
2023/10/31 09:14:04;;;;;;;1.80;1.03;;;12.80;99.90;;;;;;5041511;28;20178;-64
2023/10/31 09:16:30;;;;;;;1.30;1.20;;;12.80;99.90;;;;;;5050225;28;20195;-62
2023/10/31 09:18:55;;;;;;;1.40;1.30;;;12.90;99.90;;;;;;5039549;28;20646;-64
2023/10/31 09:21:21;;;;;;;2.37;0.87;;;12.90;99.90;;;;;;5057301;28;20265;-64
2023/10/31 09:23:47;;;;;;;1.30;0.70;;;13.10;99.90;;;;;;5044502;28;20187;-65
2023/10/31 09:26:13;;;;;;;1.77;1.40;;;13.30;99.90;;;;;;5054979;28;20238;-64
2023/10/31 09:28:40;;;;;;;1.47;0.80;;;13.50;99.90;;;;;;5066117;28;20261;-65
2023/10/31 09:31:05;;;;;;;2.10;1.00;;;13.40;99.90;;;;;;5058307;28;20211;-64
2023/10/31 09:33:31;;;;;;;1.70;1.00;;;13.30;99.90;;;;;;5060694;28;20413;-63
2023/10/31 09:35:57;;;;;;;0.97;0.77;;;13.00;99.90;;;;;;5067878;28;20190;-64
2023/10/31 09:38:23;;;;;;;0.80;0.80;;;12.90;99.90;;;;;;5053612;28;20175;-64
2023/10/31 09:40:50;;;;;;;0.70;0.70;;;12.80;99.90;;;;;;5056311;28;20185;-64
2023/10/31 09:43:16;;;;;;;3.27;0.90;;;12.80;99.90;;;;;;5057203;28;20425;-65
2023/10/31 09:45:42;;;;;;;1.87;0.80;;;12.90;99.90;;;;;;5054749;28;20441;-64
2023/10/31 09:48:07;;;;;;;1.30;0.90;;;12.90;99.90;;;;;;5031997;28;20929;-64
2023/10/31 09:50:34;;;;;;;1.13;0.90;;;12.80;99.90;;;;;;5062982;28;20503;-67
2023/10/31 09:53:00;;;;;;;0.90;0.90;;;12.90;99.90;;;;;;5051309;28;20166;-65
2023/10/31 09:55:26;;;;;;;1.40;1.30;;;12.90;99.90;;;;;;5052256;28;20868;-65
2023/10/31 09:57:51;;;;;;;1.10;1.00;;;12.80;99.90;;;;;;5061424;28;20424;-66
2023/10/31 10:00:18;;;;;;;3.00;1.70;;;12.80;99.90;;;;;;5063134;28;20656;-66
2023/10/31 10:02:43;;;;;;;4.17;1.30;;;12.90;99.90;;;;;;5064948;28;20259;-62
2023/10/31 10:05:10;;;;;;;1.80;1.43;;;13.00;99.90;;;;;;5057520;28;20461;-65
2023/10/31 10:07:35;;;;;;;2.63;1.20;;;12.90;99.90;;;;;;5036058;28;20178;-65
2023/10/31 10:10:01;;;;;;;6.63;4.23;;;13.00;99.90;;;;;;5060744;28;20896;-64
2023/10/31 10:12:27;;;;;;;9.87;7.57;;;12.90;99.90;;;;;;5042520;28;20218;-64
2023/10/31 10:14:53;;;;;;;6.20;4.73;;;13.00;99.90;;;;;;5072486;28;20181;-65
2023/10/31 10:17:23;;;;;;;2.07;1.20;;;13.10;99.90;;;;;;5055511;28;20195;-64
2023/10/31 10:20:08;;;;;;;1.30;1.20;;;13.00;99.90;;;;;;5062426;28;20184;-64
2023/10/31 10:22:39;;;;;;;1.50;1.10;;;13.10;99.90;;;;;;5065881;28;20447;-64
2023/10/31 10:25:06;;;;;;;1.40;1.20;;;13.10;99.90;;;;;;5054267;28;20874;-65
2023/10/31 10:27:32;;;;;;;1.30;1.20;;;13.20;99.90;;;;;;5063416;28;20432;-64
2023/10/31 10:29:58;;;;;;;1.43;1.20;;;13.40;99.90;;;;;;5054135;28;20441;-64
2023/10/31 10:32:24;;;;;;;9.60;7.23;;;13.30;99.90;;;;;;5053649;28;20465;-66
2023/10/31 10:34:49;;;;;;;2.00;1.90;;;13.30;99.90;;;;;;5050849;28;20631;-67
2023/10/31 10:37:18;;;;;;;2.87;1.63;;;13.30;99.90;;;;;;5063415;28;20206;-67
2023/10/31 10:39:47;;;;;;;4.67;3.87;;;13.30;99.90;;;;;;5064868;28;20265;-66
2023/10/31 10:42:18;;;;;;;10.83;7.67;;;13.40;99.90;;;;;;5047834;28;20449;-65
2023/10/31 10:44:45;;;;;;;6.33;4.90;;;13.30;99.90;;;;;;5058453;28;20422;-69
2023/10/31 10:47:12;;;;;;;2.40;1.77;;;13.40;99.90;;;;;;5048578;28;20545;-64
2023/10/31 10:49:41;;;;;;;1.90;1.40;;;13.40;99.90;;;;;;5059180;28;20448;-65
2023/10/31 10:52:25;;;;;;;2.33;1.80;;;13.50;99.90;;;;;;5065724;28;20461;-65
2023/10/31 10:54:58;;;;;;;4.20;2.47;;;13.60;99.90;;;;;;5066470;28;20449;-65
2023/10/31 10:57:40;;;;;;;8.87;5.07;;;13.70;99.90;;;;;;5059052;28;20414;-65
2023/10/31 11:00:12;;;;;;;9.07;1.97;;;13.80;99.90;;;;;;5063494;28;20413;-63
2023/10/31 11:02:42;;;;;;;4.87;3.37;;;13.60;99.90;;;;;;5054875;28;20501;-64
2023/10/31 11:05:09;;;;;;;9.67;5.80;;;13.60;99.90;;;;;;5060136;28;20441;-63
2023/10/31 11:07:36;;;;;;;6.60;3.50;;;13.60;99.90;;;;;;5062400;28;20406;-63
2023/10/31 11:10:02;;;;;;;1.97;1.73;;;13.90;99.90;;;;;;5060611;28;20922;-64
2023/10/31 11:12:30;;;;;;;9.90;6.60;;;14.10;99.90;;;;;;5061915;28;20547;-64
2023/10/31 11:15:02;;;;;;;9.63;4.60;;;14.10;99.90;;;;;;5052959;28;20896;-65
2023/10/31 11:17:34;;;;;;;4.33;2.60;;;14.00;99.90;;;;;;5064415;28;20514;-64
2023/10/31 11:20:00;;;;;;;4.40;3.90;;;14.20;99.90;;;;;;5046244;28;20517;-64
2023/10/31 11:22:36;;;;;;;2.30;2.10;;;14.10;99.90;;;;;;5056974;28;20462;-65
2023/10/31 11:25:04;;;;;;;1.93;1.70;;;14.00;99.90;;;;;;5047149;28;20899;-65
2023/10/31 11:27:35;;;;;;;2.30;2.00;;;13.90;99.90;;;;;;5038402;28;20417;-64
2023/10/31 11:30:01;;;;;;;2.33;2.10;;;13.80;99.90;;;;;;5048018;28;20798;-65
2023/10/31 11:32:27;;;;;;;2.10;1.90;;;13.80;99.90;;;;;;5053357;28;20508;-65
2023/10/31 11:34:52;;;;;;;11.50;6.67;;;13.70;99.90;;;;;;5063018;28;20252;-64
2023/10/31 11:37:26;;;;;;;9.47;5.80;;;13.60;99.90;;;;;;5060050;28;20194;-66
2023/10/31 11:40:16;;;;;;;2.20;2.00;;;13.60;99.90;;;;;;5042903;28;20192;-65
2023/10/31 11:42:42;;;;;;;8.30;5.83;;;13.50;99.90;;;;;;5037042;28;20841;-64
2023/10/31 11:45:08;;;;;;;6.80;6.03;;;13.50;99.90;;;;;;5053439;28;20413;-64
2023/10/31 11:48:00;;;;;;;2.50;2.30;;;13.50;99.90;;;;;;5048057;28;20185;-63
2023/10/31 11:50:26;;;;;;;5.37;3.80;;;13.60;99.90;;;;;;5054811;28;20496;-63
2023/10/31 11:53:16;;;;;;;3.53;2.63;;;13.50;99.90;;;;;;5059666;28;20814;-62
2023/10/31 11:55:46;;;;;;;2.13;1.93;;;13.50;99.90;;;;;;5030958;28;20204;-66
2023/10/31 11:58:19;;;;;;;4.07;3.67;;;13.60;99.90;;;;;;5056918;28;20413;-64
2023/10/31 12:00:50;;;;;;;2.80;2.50;;;13.70;99.90;;;;;;5051628;28;20502;-63
2023/10/31 12:03:17;;;;;;;3.53;2.60;;;13.90;99.90;;;;;;5064999;28;20421;-63
2023/10/31 12:05:57;;;;;;;3.37;2.00;;;14.00;99.90;;;;;;5054928;28;20513;-63
2023/10/31 12:08:26;;;;;;;6.90;5.30;;;13.90;99.90;;;;;;5042036;28;20868;-64
2023/10/31 12:10:51;;;;;;;3.00;2.60;;;13.70;99.90;;;;;;5062489;28;20513;-64
2023/10/31 12:13:17;;;;;;;3.97;1.57;;;13.70;99.90;;;;;;5054913;28;20833;-64
2023/10/31 12:15:53;;;;;;;2.53;2.27;;;13.50;99.90;;;;;;5048389;28;20203;-64
2023/10/31 12:18:18;;;;;;;2.63;1.80;;;13.50;99.90;;;;;;5052786;28;20189;-64
2023/10/31 12:21:03;;;;;;;2.57;1.30;;;13.40;99.90;;;;;;5043346;28;20434;-63
2023/10/31 12:23:28;;;;;;;1.50;1.40;;;13.30;99.90;;;;;;5037328;28;20211;-64
2023/10/31 12:25:54;;;;;;;1.70;1.60;;;13.40;99.90;;;;;;5065011;28;21018;-65
2023/10/31 12:28:21;;;;;;;2.63;1.60;;;13.30;99.90;;;;;;5053087;28;20186;-65
2023/10/31 12:30:49;;;;;;;1.80;1.50;;;13.40;99.90;;;;;;5062688;28;21011;-64
2023/10/31 12:33:16;;;;;;;2.03;1.37;;;13.50;99.90;;;;;;5053965;28;20421;-64
2023/10/31 12:35:43;;;;;;;1.90;0.90;;;13.40;99.90;;;;;;5051118;28;20955;-64
2023/10/31 12:38:12;;;;;;;1.60;0.97;;;13.50;99.90;;;;;;5053014;28;20914;-64
2023/10/31 12:40:40;;;;;;;1.20;1.10;;;13.60;99.90;;;;;;5059623;28;20421;-64
2023/10/31 12:43:07;;;;;;;1.03;0.90;;;13.60;99.90;;;;;;5047014;28;20438;-63